Archival Weather

Václav Havel Intl Apt

Prague, Czechia (LKPR)

Report from: Friday, May 26, 2023 3:30 PM CEST
Current time: Sunday, July 14, 2024 1:33 PM CEST

Current weather – Weather history – Daily summaries
Weather forecast

Temperature18.0°C (64.4°F)
Dew point7.0°C (44.6°F)
Winds 9 kts (4.6 m/s, 10.4 mph) North-Northwest (340°)
Visibility6.2 mi. (10 km)
Clouds Few clouds 4,800 ft. (1,463 m)
Altimeter30.24 in.Hg (1024 mB)
Relative humidity49 %
Density altitude137 ft. (42 m)
Remarks No significant changes expected in the next two hours
Flight conditions Visual Meteorological Conditions
Raw dataLKPR 261330Z 34009KT 9999 FEW048 18/07 Q1024 NOSIG
An error has occurred. This application may no longer respond until reloaded. Reload 🗙